Time;durP1;ratioP1;P1;durP2;ratioP2;P2;SDS_P1;SDS_P2;PMS_P1;PMS_P2;Temp;Humidity;BMP_temperature;BMP_pressure;BME280_temperature;BME280_humidity;BME280_pressure;Samples;Min_cycle;Max_cycle;Signal;HPM_P1;HPM_P2
2023/07/10 01:42:28;;;;;;;;;;;14.70;61.60;;;;;;6270616;22;19926;-67
2023/07/10 01:44:56;;;;;;;;;;;14.70;61.30;;;;;;6245530;22;19925;-67
2023/07/10 01:47:22;;;;;;;;;;;14.70;61.40;;;;;;6247213;22;19907;-67
2023/07/10 01:49:52;;;;;;;;;;;14.70;61.30;;;;;;6246565;22;19903;-67
2023/07/10 01:52:20;;;;;;;;;;;14.70;61.30;;;;;;6222941;22;19907;-67
2023/07/10 01:54:47;;;;;;;;;;;14.80;61.10;;;;;;6275655;22;19911;-67
2023/07/10 01:57:14;;;;;;;;;;;14.80;61.10;;;;;;6248741;22;19910;-67
2023/07/10 01:59:41;;;;;;;;;;;14.70;61.10;;;;;;6248325;22;19939;-67
2023/07/10 02:02:07;;;;;;;;;;;14.80;61.10;;;;;;6247821;22;19903;-67
2023/07/10 02:04:34;;;;;;;;;;;14.80;60.60;;;;;;6273863;22;20368;-67
2023/07/10 02:07:01;;;;;;;;;;;14.90;60.40;;;;;;6275635;22;19957;-67
2023/07/10 02:09:28;;;;;;;;;;;15.00;60.10;;;;;;6275484;22;19958;-67
2023/07/10 02:11:55;;;;;;;;;;;14.90;60.00;;;;;;6275897;22;19907;-67
2023/07/10 02:14:22;;;;;;;;;;;14.90;60.00;;;;;;6248688;22;19934;-67
2023/07/10 02:16:48;;;;;;;;;;;14.90;60.00;;;;;;6275539;22;19965;-67
2023/07/10 02:19:15;;;;;;;;;;;15.00;59.90;;;;;;6275266;22;19911;-68
2023/07/10 02:21:42;;;;;;;;;;;15.00;60.10;;;;;;6275668;22;19904;-67
2023/07/10 02:24:09;;;;;;;;;;;15.10;60.10;;;;;;6275670;22;19950;-67
2023/07/10 02:26:36;;;;;;;;;;;15.10;60.00;;;;;;6248683;22;20330;-67
2023/07/10 02:29:02;;;;;;;;;;;15.10;59.90;;;;;;6275908;22;19978;-67
2023/07/10 02:31:29;;;;;;;;;;;15.20;59.80;;;;;;6275823;22;19910;-68
2023/07/10 02:33:56;;;;;;;;;;;15.20;59.40;;;;;;6275491;22;19948;-67
2023/07/10 02:36:23;;;;;;;;;;;15.20;59.20;;;;;;6248748;22;19910;-67
2023/07/10 02:38:50;;;;;;;;;;;15.20;59.20;;;;;;6248667;22;19915;-67
2023/07/10 02:41:16;;;;;;;;;;;15.20;59.10;;;;;;6275636;22;19903;-67
2023/07/10 02:43:43;;;;;;;;;;;15.30;59.10;;;;;;6275131;22;19979;-67
2023/07/10 02:46:10;;;;;;;;;;;15.30;59.10;;;;;;6275822;22;19910;-68
2023/07/10 02:48:36;;;;;;;;;;;15.30;58.80;;;;;;6275533;22;20406;-67
2023/07/10 02:51:03;;;;;;;;;;;15.30;58.80;;;;;;6275387;22;19907;-67
2023/07/10 02:53:30;;;;;;;;;;;15.30;58.60;;;;;;6275981;22;19907;-67
2023/07/10 02:55:57;;;;;;;;;;;15.30;58.60;;;;;;6277070;22;20315;-67
2023/07/10 02:58:24;;;;;;;;;;;15.30;58.70;;;;;;6277110;22;19911;-67
2023/07/10 03:00:57;;;;;;;;;;;15.40;58.70;;;;;;6275560;22;19904;-67
2023/07/10 03:03:24;;;;;;;;;;;15.30;58.70;;;;;;6276035;22;19910;-67
2023/07/10 03:05:58;;;;;;;;;;;15.30;58.60;;;;;;6275964;22;19978;-67
2023/07/10 03:08:24;;;;;;;;;;;15.40;58.60;;;;;;6275756;22;19907;-67
2023/07/10 03:11:07;;;;;;;;;;;15.40;58.50;;;;;;6277228;22;19960;-67
2023/07/10 03:13:34;;;;;;;;;;;15.40;58.40;;;;;;6275842;22;19976;-67
2023/07/10 03:16:01;;;;;;;;;;;15.50;58.20;;;;;;6250329;22;19904;-68
2023/07/10 03:18:27;;;;;;;;;;;15.50;58.10;;;;;;6277282;22;19911;-67
2023/07/10 03:20:54;;;;;;;;;;;15.50;58.20;;;;;;6277183;22;19982;-67
2023/07/10 03:23:21;;;;;;;;;;;15.50;57.90;;;;;;6277443;22;19982;-67
2023/07/10 03:25:48;;;;;;;;;;;15.50;58.00;;;;;;6277385;22;19949;-67
2023/07/10 03:28:15;;;;;;;;;;;15.60;58.10;;;;;;6277318;22;19982;-67
2023/07/10 03:30:42;;;;;;;;;;;15.60;58.30;;;;;;6275449;22;20018;-67
2023/07/10 03:33:10;;;;;;;;;;;15.60;58.40;;;;;;6277159;22;19934;-67
2023/07/10 03:35:37;;;;;;;;;;;15.60;58.10;;;;;;6277037;22;19978;-67
2023/07/10 03:38:04;;;;;;;;;;;15.60;57.80;;;;;;6276899;22;20382;-67
2023/07/10 03:40:30;;;;;;;;;;;15.60;57.80;;;;;;6277195;22;20214;-67
2023/07/10 03:42:57;;;;;;;;;;;15.70;57.70;;;;;;6276750;22;19911;-67
2023/07/10 03:45:24;;;;;;;;;;;15.70;57.90;;;;;;6276741;22;19938;-67
2023/07/10 03:47:51;;;;;;;;;;;15.80;57.50;;;;;;6276663;22;20465;-67
2023/07/10 03:50:18;;;;;;;;;;;15.80;57.50;;;;;;6276840;22;19903;-67
2023/07/10 03:52:44;;;;;;;;;;;15.70;57.60;;;;;;6275695;22;19957;-67
2023/07/10 03:55:11;;;;;;;;;;;15.70;57.30;;;;;;6276861;22;20219;-67
2023/07/10 03:57:38;;;;;;;;;;;15.70;57.30;;;;;;6276840;22;19965;-68
2023/07/10 04:00:05;;;;;;;;;;;15.70;57.30;;;;;;6276535;22;19904;-67
2023/07/10 04:02:32;;;;;;;;;;;15.70;57.30;;;;;;6276278;22;20318;-67
2023/07/10 04:04:59;;;;;;;;;;;15.80;57.40;;;;;;6277050;22;19908;-67
2023/07/10 04:07:25;;;;;;;;;;;15.70;57.40;;;;;;6276898;22;20298;-67
2023/07/10 04:09:52;;;;;;;;;;;15.80;57.40;;;;;;6276686;22;19904;-68
2023/07/10 04:12:19;;;;;;;;;;;15.80;57.20;;;;;;6276641;22;20234;-67
2023/07/10 04:14:46;;;;;;;;;;;15.90;57.10;;;;;;6277080;22;19903;-67
2023/07/10 04:17:14;;;;;;;;;;;15.90;57.10;;;;;;6276754;22;20208;-67
2023/07/10 04:19:41;;;;;;;;;;;15.90;57.30;;;;;;6276437;22;19903;-67
2023/07/10 04:22:08;;;;;;;;;;;15.90;57.30;;;;;;6276881;22;19978;-67
2023/07/10 04:24:35;;;;;;;;;;;15.90;57.00;;;;;;6276989;22;19903;-68
2023/07/10 04:27:02;;;;;;;;;;;16.00;56.90;;;;;;6275413;22;19907;-68
2023/07/10 04:29:28;;;;;;;;;;;16.00;56.70;;;;;;6276449;22;19910;-67
2023/07/10 04:31:55;;;;;;;;;;;16.00;56.90;;;;;;6276331;22;19957;-67
2023/07/10 04:34:22;;;;;;;;;;;16.00;56.60;;;;;;6276626;22;19907;-67
2023/07/10 04:36:49;;;;;;;;;;;16.10;56.50;;;;;;6276660;22;19969;-67
2023/07/10 04:39:16;;;;;;;;;;;16.10;56.20;;;;;;6276432;22;19942;-67
2023/07/10 04:41:44;;;;;;;;;;;16.10;55.40;;;;;;6276188;22;19904;-67
2023/07/10 04:44:11;;;;;;;;;;;16.10;54.90;;;;;;6276111;22;19915;-67
2023/07/10 04:46:37;;;;;;;;;;;16.10;54.70;;;;;;6276454;22;19970;-67
2023/07/10 04:49:04;;;;;;;;;;;16.20;54.70;;;;;;6276406;22;20238;-67
2023/07/10 04:51:31;;;;;;;;;;;16.20;54.60;;;;;;6276331;22;19904;-67
2023/07/10 04:53:58;;;;;;;;;;;16.20;54.90;;;;;;6276639;22;19982;-67
2023/07/10 04:56:24;;;;;;;;;;;16.20;55.10;;;;;;6276420;22;19904;-67
2023/07/10 04:58:55;;;;;;;;;;;16.20;55.10;;;;;;6276664;22;19916;-67
2023/07/10 05:01:22;;;;;;;;;;;16.20;55.20;;;;;;6275368;22;19908;-67
2023/07/10 05:03:49;;;;;;;;;;;16.20;55.50;;;;;;6276635;22;19911;-67
2023/07/10 05:06:16;;;;;;;;;;;16.20;55.20;;;;;;6276525;22;20281;-67
2023/07/10 05:08:43;;;;;;;;;;;16.20;54.90;;;;;;6276214;22;20233;-67
2023/07/10 05:11:10;;;;;;;;;;;16.20;54.80;;;;;;6276208;22;19910;-67
2023/07/10 05:13:36;;;;;;;;;;;16.20;55.00;;;;;;6276295;22;19904;-67
2023/07/10 05:16:03;;;;;;;;;;;16.30;54.70;;;;;;6276142;22;20310;-67
2023/07/10 05:18:30;;;;;;;;;;;16.20;54.20;;;;;;6276017;22;19911;-67
2023/07/10 05:20:58;;;;;;;;;;;16.20;53.90;;;;;;6275989;22;20311;-68
2023/07/10 05:23:25;;;;;;;;;;;16.20;53.30;;;;;;6276139;22;19903;-67
2023/07/10 05:26:02;;;;;;;;;;;16.20;53.20;;;;;;6276188;22;20369;-67
2023/07/10 05:28:29;;;;;;;;;;;16.20;53.50;;;;;;6276169;22;19953;-67
2023/07/10 05:30:57;;;;;;;;;;;16.20;53.30;;;;;;6276041;22;19903;-67
2023/07/10 05:33:24;;;;;;;;;;;16.20;53.30;;;;;;6276078;22;19907;-67
2023/07/10 05:35:51;;;;;;;;;;;16.30;53.50;;;;;;6276415;22;19951;-67
2023/07/10 05:38:18;;;;;;;;;;;16.30;53.50;;;;;;6275955;22;19911;-67
2023/07/10 05:40:44;;;;;;;;;;;16.20;53.50;;;;;;6276105;22;19942;-68
2023/07/10 05:43:11;;;;;;;;;;;16.20;53.50;;;;;;6275726;22;19915;-67
2023/07/10 05:45:38;;;;;;;;;;;16.20;53.60;;;;;;6275769;22;20233;-67
2023/07/10 05:48:05;;;;;;;;;;;16.20;53.70;;;;;;6274370;22;20288;-67
2023/07/10 05:50:32;;;;;;;;;;;16.20;53.80;;;;;;6275921;22;20318;-68
2023/07/10 05:52:59;;;;;;;;;;;16.20;53.80;;;;;;6276492;22;19987;-67
2023/07/10 05:55:25;;;;;;;;;;;16.20;53.70;;;;;;6275905;22;19949;-68
2023/07/10 05:57:52;;;;;;;;;;;16.20;53.80;;;;;;6275914;22;20245;-67
2023/07/10 06:00:19;;;;;;;;;;;16.20;53.60;;;;;;6275599;22;20324;-67
2023/07/10 06:02:45;;;;;;;;;;;16.20;53.60;;;;;;6274193;22;19970;-67
2023/07/10 06:05:12;;;;;;;;;;;16.20;53.60;;;;;;6275906;22;19982;-67
2023/07/10 06:07:39;;;;;;;;;;;16.20;53.60;;;;;;6275507;22;19903;-67
2023/07/10 06:10:06;;;;;;;;;;;16.20;53.70;;;;;;6275799;22;20368;-67
2023/07/10 06:12:33;;;;;;;;;;;16.20;53.80;;;;;;6275739;22;19907;-67
2023/07/10 06:14:59;;;;;;;;;;;16.20;53.80;;;;;;6269255;22;19911;-69
2023/07/10 06:17:26;;;;;;;;;;;16.20;53.90;;;;;;6272366;22;19919;-69
2023/07/10 06:19:53;;;;;;;;;;;16.20;54.00;;;;;;6272486;22;20009;-70
2023/07/10 06:22:19;;;;;;;;;;;16.20;54.10;;;;;;6272373;22;20342;-70
2023/07/10 06:24:46;;;;;;;;;;;16.20;54.20;;;;;;6272679;22;19982;-69
2023/07/10 06:27:13;;;;;;;;;;;16.10;54.10;;;;;;6273892;22;19907;-68
2023/07/10 06:29:40;;;;;;;;;;;16.10;54.10;;;;;;6274133;22;19918;-68
2023/07/10 06:32:07;;;;;;;;;;;16.10;54.10;;;;;;6273972;22;19903;-68
2023/07/10 06:34:34;;;;;;;;;;;16.10;54.30;;;;;;6274433;22;19969;-68
2023/07/10 06:37:00;;;;;;;;;;;16.10;54.40;;;;;;6274231;22;19910;-68
2023/07/10 06:39:27;;;;;;;;;;;16.10;54.50;;;;;;6274043;22;20322;-69
2023/07/10 06:41:54;;;;;;;;;;;16.10;54.60;;;;;;6274403;22;19903;-68
2023/07/10 06:44:21;;;;;;;;;;;16.10;54.60;;;;;;6273856;22;20038;-68
2023/07/10 06:46:48;;;;;;;;;;;16.10;54.60;;;;;;6274614;22;20337;-68
2023/07/10 06:49:14;;;;;;;;;;;16.00;54.80;;;;;;6272645;22;19908;-68
2023/07/10 06:51:41;;;;;;;;;;;16.00;55.20;;;;;;6273847;22;19904;-68
2023/07/10 06:54:08;;;;;;;;;;;16.00;55.40;;;;;;6274327;22;19930;-68
2023/07/10 06:56:35;;;;;;;;;;;16.00;55.80;;;;;;6274236;22;19907;-68
2023/07/10 06:59:01;;;;;;;;;;;15.90;56.10;;;;;;6274193;22;19914;-69
2023/07/10 07:01:28;;;;;;;;;;;15.90;56.20;;;;;;6274612;22;20313;-69
2023/07/10 07:03:55;;;;;;;;;;;15.80;56.40;;;;;;6272996;22;19907;-68
2023/07/10 07:06:22;;;;;;;;;;;15.80;56.40;;;;;;6273954;22;19911;-68
2023/07/10 07:08:49;;;;;;;;;;;15.70;56.60;;;;;;6273843;22;19907;-68
2023/07/10 07:11:16;;;;;;;;;;;15.70;56.60;;;;;;6272266;22;20243;-69
2023/07/10 07:13:42;;;;;;;;;;;15.70;56.50;;;;;;6270952;22;19912;-69
2023/07/10 07:16:09;;;;;;;;;;;15.70;56.40;;;;;;6273864;22;19918;-71
2023/07/10 07:18:36;;;;;;;;;;;15.70;56.40;;;;;;6273711;22;19915;-69
2023/07/10 07:21:02;;;;;;;;;;;15.60;56.40;;;;;;6272799;22;19903;-69
2023/07/10 07:23:29;;;;;;;;;;;15.70;56.40;;;;;;6272606;22;19930;-68
2023/07/10 07:25:56;;;;;;;;;;;15.60;56.50;;;;;;6273262;22;20341;-68
2023/07/10 07:28:23;;;;;;;;;;;15.60;56.50;;;;;;6274106;22;19911;-69
2023/07/10 07:30:50;;;;;;;;;;;15.60;56.60;;;;;;6273713;22;19922;-69
2023/07/10 07:33:20;;;;;;;;;;;15.60;56.70;;;;;;6273163;22;20349;-68
2023/07/10 07:35:47;;;;;;;;;;;15.60;56.90;;;;;;6273525;22;20339;-69
2023/07/10 07:38:13;;;;;;;;;;;15.50;57.30;;;;;;6272948;22;20275;-70
2023/07/10 07:40:40;;;;;;;;;;;15.50;57.40;;;;;;6273314;22;20316;-69
2023/07/10 07:43:07;;;;;;;;;;;15.50;57.60;;;;;;6271399;22;19919;-69
2023/07/10 07:45:34;;;;;;;;;;;15.50;57.60;;;;;;6273014;22;20341;-68
2023/07/10 07:48:00;;;;;;;;;;;15.40;57.70;;;;;;6272173;22;19969;-68
2023/07/10 07:50:27;;;;;;;;;;;15.40;57.80;;;;;;6272508;22;19907;-68
2023/07/10 07:52:54;;;;;;;;;;;15.40;57.80;;;;;;6273595;22;20029;-71
2023/07/10 07:55:21;;;;;;;;;;;15.40;57.80;;;;;;6274095;22;20029;-69
2023/07/10 07:57:47;;;;;;;;;;;15.30;57.80;;;;;;6273873;22;19915;-68
2023/07/10 08:00:17;;;;;;;;;;;15.30;57.90;;;;;;6272840;22;20554;-69
2023/07/10 08:02:47;;;;;;;;;;;15.30;57.90;;;;;;6271725;22;19907;-68
2023/07/10 08:05:14;;;;;;;;;;;15.30;58.00;;;;;;6273552;22;19910;-68
2023/07/10 08:07:40;;;;;;;;;;;15.30;58.00;;;;;;6273223;22;19907;-68
2023/07/10 08:10:07;;;;;;;;;;;15.30;58.10;;;;;;6273533;22;19915;-68
2023/07/10 08:12:34;;;;;;;;;;;15.30;58.20;;;;;;6272011;22;19911;-69
2023/07/10 08:15:01;;;;;;;;;;;15.30;58.30;;;;;;6270606;22;19982;-69
2023/07/10 08:17:28;;;;;;;;;;;15.30;58.50;;;;;;6273184;22;19982;-71
2023/07/10 08:19:54;;;;;;;;;;;15.30;58.80;;;;;;6272299;22;19972;-69
2023/07/10 08:22:21;;;;;;;;;;;15.20;59.10;;;;;;6273513;22;20219;-69
2023/07/10 08:24:48;;;;;;;;;;;15.20;59.20;;;;;;6272917;22;19926;-70
2023/07/10 08:27:14;;;;;;;;;;;15.20;59.30;;;;;;6272910;22;19986;-67
2023/07/10 08:29:41;;;;;;;;;;;15.20;59.30;;;;;;6273038;22;19943;-71
2023/07/10 08:32:08;;;;;;;;;;;15.20;59.30;;;;;;6272060;22;19907;-67
2023/07/10 08:34:35;;;;;;;;;;;15.10;59.30;;;;;;6270589;22;19957;-68
2023/07/10 08:37:02;;;;;;;;;;;15.10;59.30;;;;;;6273052;22;19911;-70
2023/07/10 08:39:29;;;;;;;;;;;15.00;59.40;;;;;;6272720;22;19976;-68
2023/07/10 08:41:56;;;;;;;;;;;15.10;59.40;;;;;;6272999;22;19903;-71
2023/07/10 08:44:43;;;;;;;;;;;15.00;59.40;;;;;;6272930;22;20315;-72
2023/07/10 08:47:17;;;;;;;;;;;15.00;59.40;;;;;;6272544;22;19990;-73
2023/07/10 08:49:53;;;;;;;;;;;15.00;59.40;;;;;;6270487;22;20024;-74
2023/07/10 08:52:40;;;;;;;;;;;15.00;59.60;;;;;;6271585;22;19903;-74
2023/07/10 08:55:13;;;;;;;;;;;14.90;60.00;;;;;;6272856;22;19915;-73
2023/07/10 08:57:46;;;;;;;;;;;14.80;60.40;;;;;;6271137;22;19930;-72
2023/07/10 09:00:14;;;;;;;;;;;14.80;60.50;;;;;;6272584;22;19913;-71
2023/07/10 09:02:42;;;;;;;;;;;14.80;60.60;;;;;;6272040;22;19903;-72
2023/07/10 09:05:13;;;;;;;;;;;14.80;60.70;;;;;;6273834;22;19907;-71
2023/07/10 09:07:42;;;;;;;;;;;14.70;60.70;;;;;;6269812;22;20017;-72
2023/07/10 09:10:29;;;;;;;;;;;14.70;60.90;;;;;;6272997;22;19903;-72
2023/07/10 09:12:56;;;;;;;;;;;14.70;60.70;;;;;;6250695;22;19914;-72
2023/07/10 09:15:29;;;;;;;;;;;14.70;60.70;;;;;;6268243;22;19950;-71
2023/07/10 09:18:08;;;;;;;;;;;14.70;60.80;;;;;;6271384;22;19915;-71
2023/07/10 09:20:36;;;;;;;;;;;14.60;60.80;;;;;;6273031;22;19988;-71
2023/07/10 09:23:12;;;;;;;;;;;14.70;60.80;;;;;;6271111;22;19978;-71
2023/07/10 09:25:39;;;;;;;;;;;14.60;60.80;;;;;;6270387;22;19914;-70
2023/07/10 09:28:05;;;;;;;;;;;14.60;61.10;;;;;;6272705;22;19957;-70
2023/07/10 09:30:38;;;;;;;;;;;14.50;61.10;;;;;;6272176;22;19907;-71
2023/07/10 09:33:06;;;;;;;;;;;14.50;61.30;;;;;;6270121;22;19919;-72
2023/07/10 09:35:34;;;;;;;;;;;14.50;61.20;;;;;;6270917;22;19958;-72
2023/07/10 09:38:00;;;;;;;;;;;14.40;61.10;;;;;;6269376;22;19939;-72
2023/07/10 09:40:46;;;;;;;;;;;14.40;61.00;;;;;;6271549;22;20335;-73
2023/07/10 09:43:23;;;;;;;;;;;14.40;61.10;;;;;;6270767;22;19919;-72
2023/07/10 09:45:58;;;;;;;;;;;14.40;61.10;;;;;;6270872;22;20179;-72
2023/07/10 09:48:35;;;;;;;;;;;14.40;60.80;;;;;;6269866;22;19911;-70
2023/07/10 09:51:06;;;;;;;;;;;14.40;60.80;;;;;;6271340;22;20285;-71
2023/07/10 09:53:34;;;;;;;;;;;14.40;60.80;;;;;;6271537;22;19903;-69
2023/07/10 09:56:01;;;;;;;;;;;14.30;60.60;;;;;;6271497;22;19939;-69
2023/07/10 09:58:28;;;;;;;;;;;14.30;60.50;;;;;;6271514;22;19919;-69
2023/07/10 10:00:54;;;;;;;;;;;14.30;60.50;;;;;;6271504;22;19961;-68
2023/07/10 10:03:24;;;;;;;;;;;14.30;60.60;;;;;;6272182;22;20366;-69
2023/07/10 10:05:55;;;;;;;;;;;14.30;60.50;;;;;;6272228;22;19907;-77
2023/07/10 10:08:22;;;;;;;;;;;14.20;60.40;;;;;;6274470;22;20002;-73
2023/07/10 10:11:02;;;;;;;;;;;14.20;60.60;;;;;;6274059;22;19998;-71
2023/07/10 10:13:29;;;;;;;;;;;14.20;60.60;;;;;;6272083;22;19988;-71
2023/07/10 10:16:06;;;;;;;;;;;14.20;60.60;;;;;;6272232;22;19961;-72
2023/07/10 10:18:34;;;;;;;;;;;14.10;61.00;;;;;;6272888;22;19990;-72
2023/07/10 10:21:01;;;;;;;;;;;14.10;61.00;;;;;;6272839;22;19969;-72
2023/07/10 10:23:29;;;;;;;;;;;14.10;61.00;;;;;;6272856;22;19915;-72
2023/07/10 10:25:56;;;;;;;;;;;14.10;61.10;;;;;;6272394;22;19911;-73
2023/07/10 10:28:25;;;;;;;;;;;14.00;61.20;;;;;;6272122;22;19934;-73
2023/07/10 10:30:56;;;;;;;;;;;14.00;61.20;;;;;;6272686;22;19953;-74
2023/07/10 10:33:41;;;;;;;;;;;14.00;61.00;;;;;;6272067;22;19903;-79
2023/07/10 10:36:10;;;;;;;;;;;13.90;61.10;;;;;;6273330;22;19990;-70
2023/07/10 10:38:40;;;;;;;;;;;13.90;61.30;;;;;;6273765;22;20327;-73
2023/07/10 10:41:18;;;;;;;;;;;13.90;61.30;;;;;;6269856;22;19914;-69
2023/07/10 10:43:52;;;;;;;;;;;13.80;61.30;;;;;;6272086;22;19919;-71
2023/07/10 10:46:28;;;;;;;;;;;13.80;61.40;;;;;;6271412;22;19966;-72
2023/07/10 10:48:57;;;;;;;;;;;13.80;61.30;;;;;;6273578;22;19907;-72
2023/07/10 10:51:29;;;;;;;;;;;13.80;61.40;;;;;;6272114;22;19945;-68
2023/07/10 10:53:56;;;;;;;;;;;13.70;61.30;;;;;;6273177;22;19911;-70
2023/07/10 11:47:07;;;;;;;;;;;13.00;64.30;;;;;;6302815;22;19921;-69
2023/07/10 11:49:49;;;;;;;;;;;12.90;65.10;;;;;;6306670;22;19987;-67
2023/07/10 11:52:18;;;;;;;;;;;12.90;65.20;;;;;;6278830;22;19910;-68
2023/07/10 11:54:48;;;;;;;;;;;12.90;65.70;;;;;;6306655;22;19945;-68
2023/07/10 11:57:17;;;;;;;;;;;12.90;65.40;;;;;;6306564;22;19957;-68
2023/07/10 11:59:48;;;;;;;;;;;12.80;65.90;;;;;;6306851;22;19911;-68
2023/07/10 12:02:24;;;;;;;;;;;12.80;66.30;;;;;;6306278;22;20234;-68
2023/07/10 12:04:51;;;;;;;;;;;12.80;65.80;;;;;;6306772;22;19910;-68
2023/07/10 12:07:17;;;;;;;;;;;12.70;66.30;;;;;;6307006;22;19907;-69
2023/07/10 12:09:49;;;;;;;;;;;12.70;66.30;;;;;;6306276;22;19903;-69
2023/07/10 12:12:15;;;;;;;;;;;12.70;66.30;;;;;;6278922;22;20078;-69
2023/07/10 12:14:42;;;;;;;;;;;12.70;66.20;;;;;;6306167;22;19907;-68
2023/07/10 12:17:13;;;;;;;;;;;12.60;66.30;;;;;;6307473;22;19903;-69
2023/07/10 12:19:41;;;;;;;;;;;12.70;66.30;;;;;;6279631;22;19922;-68
2023/07/10 12:22:20;;;;;;;;;;;12.70;66.80;;;;;;6278958;22;19930;-68
2023/07/10 12:24:59;;;;;;;;;;;12.60;66.50;;;;;;6306066;22;19938;-68
2023/07/10 12:27:29;;;;;;;;;;;12.60;66.50;;;;;;6306836;22;20282;-68
2023/07/10 12:29:55;;;;;;;;;;;12.50;66.90;;;;;;6279349;22;19952;-68
2023/07/10 12:32:23;;;;;;;;;;;12.60;66.70;;;;;;6278065;22;20388;-68
2023/07/10 12:34:49;;;;;;;;;;;12.50;66.70;;;;;;6307272;22;19991;-69
2023/07/10 12:37:16;;;;;;;;;;;12.50;66.80;;;;;;6307260;22;19907;-69
2023/07/10 12:39:47;;;;;;;;;;;12.40;66.50;;;;;;6279634;22;19942;-68
2023/07/10 12:42:32;;;;;;;;;;;12.40;66.70;;;;;;6280798;22;19957;-68
2023/07/10 12:44:59;;;;;;;;;;;12.40;66.90;;;;;;6307170;22;19907;-69
2023/07/10 19:34:56;;;;;;;;;;;9.00;77.90;;;;;;6305950;22;19926;-68
2023/07/10 19:37:23;;;;;;;;;;;9.00;77.70;;;;;;6306298;22;19914;-68
2023/07/10 19:39:50;;;;;;;;;;;8.90;77.70;;;;;;6305402;22;19918;-68
2023/07/10 19:42:16;;;;;;;;;;;9.00;77.80;;;;;;6306654;22;20251;-69
2023/07/10 19:44:51;;;;;;;;;;;9.00;77.80;;;;;;6277853;22;19903;-68
2023/07/10 19:47:18;;;;;;;;;;;9.00;77.60;;;;;;6306396;22;19910;-68
2023/07/10 19:49:45;;;;;;;;;;;9.00;77.50;;;;;;6278946;22;19910;-68
2023/07/10 19:52:13;;;;;;;;;;;9.00;78.00;;;;;;6278536;22;19903;-68
2023/07/10 19:54:40;;;;;;;;;;;9.00;77.90;;;;;;6279880;22;19961;-68
2023/07/10 19:57:27;;;;;;;;;;;9.00;77.70;;;;;;6279248;22;19982;-68
2023/07/10 19:59:54;;;;;;;;;;;9.00;77.50;;;;;;6280082;22;20301;-68
2023/07/10 20:02:21;;;;;;;;;;;9.10;77.20;;;;;;6280662;22;19964;-68
2023/07/10 20:04:48;;;;;;;;;;;9.00;76.80;;;;;;6279816;22;20263;-68
2023/07/10 20:07:15;;;;;;;;;;;9.00;77.00;;;;;;6307498;22;19909;-68
2023/07/10 20:09:41;;;;;;;;;;;9.00;76.80;;;;;;6306952;22;20009;-68
2023/07/10 20:12:14;;;;;;;;;;;8.90;77.10;;;;;;6280070;22;20335;-68
2023/07/10 20:14:41;;;;;;;;;;;9.00;76.90;;;;;;6279937;22;20280;-68
2023/07/10 20:17:08;;;;;;;;;;;9.00;76.80;;;;;;6307517;22;20344;-68
2023/07/10 20:19:35;;;;;;;;;;;9.00;76.50;;;;;;6280445;22;19919;-68
2023/07/10 20:22:01;;;;;;;;;;;9.00;76.80;;;;;;6307271;22;19907;-68
2023/07/10 20:24:28;;;;;;;;;;;9.10;76.30;;;;;;6306823;22;19903;-69
2023/07/10 20:26:55;;;;;;;;;;;9.10;76.20;;;;;;6307779;22;19907;-68
2023/07/10 20:29:21;;;;;;;;;;;9.00;76.10;;;;;;6280559;22;19910;-68
2023/07/10 20:31:48;;;;;;;;;;;9.00;76.30;;;;;;6279971;22;19914;-68
2023/07/10 20:43:26;;;;;;;;;;;9.00;76.50;;;;;;6298758;22;19929;-68
2023/07/10 20:45:56;;;;;;;;;;;9.00;76.40;;;;;;6278963;22;19918;-68
2023/07/10 20:48:25;;;;;;;;;;;9.00;76.50;;;;;;6307082;22;19926;-68
2023/07/10 20:50:53;;;;;;;;;;;8.90;76.80;;;;;;6279900;22;19907;-68
2023/07/10 20:53:20;;;;;;;;;;;9.00;76.70;;;;;;6279325;22;19938;-68
2023/07/10 20:55:48;;;;;;;;;;;8.90;76.80;;;;;;6279357;22;19903;-68
2023/07/10 20:58:16;;;;;;;;;;;8.90;77.20;;;;;;6279281;22;19911;-68
2023/07/10 21:00:44;;;;;;;;;;;8.90;77.20;;;;;;6306631;22;19903;-68
2023/07/10 21:03:14;;;;;;;;;;;8.90;77.20;;;;;;6305674;22;19903;-69
2023/07/10 21:05:41;;;;;;;;;;;8.80;77.20;;;;;;6278583;22;20327;-67
2023/07/10 21:08:26;;;;;;;;;;;8.80;77.30;;;;;;6305911;22;19974;-69
2023/07/10 21:10:53;;;;;;;;;;;8.80;77.50;;;;;;6306212;22;19907;-67
2023/07/10 21:13:20;;;;;;;;;;;8.80;77.50;;;;;;6306515;22;19907;-69
2023/07/10 21:15:47;;;;;;;;;;;8.80;77.40;;;;;;6306766;22;19969;-68
2023/07/10 21:18:15;;;;;;;;;;;8.70;77.80;;;;;;6305398;22;19972;-69
2023/07/10 21:20:42;;;;;;;;;;;8.70;77.90;;;;;;6279059;22;19906;-69
2023/07/10 21:23:31;;;;;;;;;;;8.70;78.10;;;;;;6305784;22;19937;-69
2023/07/10 21:26:00;;;;;;;;;;;8.70;78.20;;;;;;6259321;22;19942;-70
2023/07/10 21:28:33;;;;;;;;;;;8.70;78.40;;;;;;6251766;22;19903;-70
2023/07/10 21:31:00;;;;;;;;;;;8.60;78.50;;;;;;6305933;22;20329;-69
2023/07/10 21:33:27;;;;;;;;;;;8.70;78.50;;;;;;6304907;22;19907;-69
2023/07/10 21:35:55;;;;;;;;;;;8.70;78.50;;;;;;6252966;22;19913;-69
2023/07/10 21:38:22;;;;;;;;;;;8.70;78.40;;;;;;6305348;22;19917;-69
2023/07/10 21:40:48;;;;;;;;;;;8.70;78.30;;;;;;6305755;22;19942;-69
2023/07/10 22:57:17;;;;;;;;;;;10.10;74.80;;;;;;6300352;22;20097;-68
2023/07/10 22:59:43;;;;;;;;;;;10.20;74.40;;;;;;6306412;22;19923;-68
2023/07/10 23:02:10;;;;;;;;;;;10.20;74.40;;;;;;6306297;22;19903;-68
2023/07/10 23:04:36;;;;;;;;;;;10.30;73.90;;;;;;6306640;22;19956;-69
2023/07/10 23:07:03;;;;;;;;;;;10.30;73.80;;;;;;6307135;22;19972;-68
2023/07/10 23:09:30;;;;;;;;;;;10.40;73.80;;;;;;6308274;22;20237;-68
2023/07/10 23:11:57;;;;;;;;;;;10.40;73.60;;;;;;6308098;22;19945;-68
2023/07/10 23:14:23;;;;;;;;;;;10.50;73.20;;;;;;6308485;22;19978;-69
2023/07/10 23:16:52;;;;;;;;;;;10.50;73.10;;;;;;6308426;22;19903;-69
2023/07/10 23:19:19;;;;;;;;;;;10.60;72.60;;;;;;6280909;22;20036;-70
2023/07/10 23:21:46;;;;;;;;;;;10.60;72.30;;;;;;6308111;22;20284;-69
2023/07/10 23:24:12;;;;;;;;;;;10.60;72.10;;;;;;6308209;22;19903;-68
2023/07/10 23:26:39;;;;;;;;;;;10.70;72.10;;;;;;6280650;22;20269;-69
2023/07/10 23:29:06;;;;;;;;;;;10.70;71.90;;;;;;6307855;22;20215;-69
2023/07/10 23:31:33;;;;;;;;;;;10.70;71.70;;;;;;6307788;22;20222;-69
2023/07/10 23:34:00;;;;;;;;;;;10.80;71.70;;;;;;6280620;22;19979;-69
2023/07/10 23:36:27;;;;;;;;;;;10.80;71.60;;;;;;6307786;22;19934;-69
2023/07/10 23:38:59;;;;;;;;;;;10.90;71.40;;;;;;6308467;22;20318;-69
2023/07/10 23:41:25;;;;;;;;;;;10.90;71.40;;;;;;6281504;22;19990;-69
2023/07/10 23:43:52;;;;;;;;;;;11.00;71.20;;;;;;6308134;22;19902;-68
2023/07/10 23:46:18;;;;;;;;;;;11.00;71.00;;;;;;6307899;22;19982;-68
2023/07/10 23:48:45;;;;;;;;;;;11.00;70.90;;;;;;6280909;22;19907;-69
2023/07/10 23:51:12;;;;;;;;;;;11.10;71.00;;;;;;6308099;22;19903;-69
2023/07/10 23:53:38;;;;;;;;;;;11.20;70.50;;;;;;6307643;22;19986;-69
2023/07/10 23:56:05;;;;;;;;;;;11.20;70.50;;;;;;6280619;22;19926;-69
2023/07/10 23:58:32;;;;;;;;;;;11.20;70.40;;;;;;6307766;22;19925;-69
